Time;durP1;ratioP1;P1;durP2;ratioP2;P2;SDS_P1;SDS_P2;PMS_P1;PMS_P2;Temp;Humidity;BMP_temperature;BMP_pressure;BME280_temperature;BME280_humidity;BME280_pressure;Samples;Min_cycle;Max_cycle;Signal;HPM_P1;HPM_P2
2022/06/11 00:02:17;;;;;;;10.23;7.70;;;;;;;16.74;61.76;99031.56;4954258;28;20051;-69
2022/06/11 00:04:43;;;;;;;9.88;8.88;;;;;;;16.69;61.72;99030.81;4953713;28;20501;-69
2022/06/11 00:07:14;;;;;;;9.23;8.30;;;;;;;16.66;62.24;99031.38;4954206;29;20051;-69
2022/06/11 00:09:41;;;;;;;14.32;9.65;;;;;;;16.61;62.45;99032.22;4952650;28;20043;-69
2022/06/11 00:12:08;;;;;;;9.23;8.23;;;;;;;16.56;62.38;99030.44;4954285;28;20090;-69
2022/06/11 00:14:34;;;;;;;11.30;8.25;;;;;;;16.52;62.51;99026.72;4953736;28;20067;-68
2022/06/11 00:17:02;;;;;;;10.68;8.55;;;;;;;16.46;62.91;99027.06;4956283;28;20569;-69
2022/06/11 00:19:28;;;;;;;11.35;8.00;;;;;;;16.43;62.66;99020.41;4955666;28;20074;-69
2022/06/11 00:21:54;;;;;;;17.23;8.10;;;;;;;16.44;62.74;99035.38;4956231;28;20081;-70
2022/06/11 00:24:22;;;;;;;13.55;8.82;;;;;;;16.42;62.86;99034.88;4972801;28;20130;-70
2022/06/11 00:26:50;;;;;;;9.98;8.82;;;;;;;16.45;62.68;99034.28;4972814;28;20463;-70
2022/06/11 00:29:18;;;;;;;13.15;9.35;;;;;;;16.42;63.24;99034.88;4972339;28;20097;-70
2022/06/11 00:31:44;;;;;;;11.80;9.25;;;;;;;16.37;63.32;99023.41;4972911;28;20051;-69
2022/06/11 00:34:10;;;;;;;17.48;11.05;;;;;;;16.33;63.61;99040.03;4972339;28;20053;-68
2022/06/11 00:36:36;;;;;;;16.98;11.00;;;;;;;16.29;63.69;99036.31;4973364;28;20062;-69
2022/06/11 00:39:04;;;;;;;12.00;8.88;;;;;;;16.25;63.51;99037.19;4972500;28;20448;-69
2022/06/11 00:41:30;;;;;;;9.95;7.55;;;;;;;16.25;63.18;99039.84;4973181;28;20082;-69
2022/06/11 00:43:56;;;;;;;8.30;7.50;;;;;;;16.23;63.16;99034.78;4972603;28;20456;-69
2022/06/11 00:46:52;;;;;;;11.50;7.88;;;;;;;16.21;63.41;99044.97;4973080;28;20385;-69
2022/06/11 00:49:39;;;;;;;9.88;7.85;;;;;;;16.21;63.53;99049.53;4954922;28;20046;-69
2022/06/11 00:52:19;;;;;;;11.30;8.20;;;;;;;16.20;63.45;99050.59;4972535;28;20075;-68
2022/06/11 00:54:53;;;;;;;9.88;7.72;;;;;;;16.20;63.49;99054.06;4972150;28;20043;-69
2022/06/11 00:57:19;;;;;;;9.55;7.00;;;;;;;16.28;63.08;99058.00;4972663;28;20069;-69
2022/06/11 00:59:51;;;;;;;10.65;7.90;;;;;;;16.34;62.96;99055.00;4954189;28;20088;-69
2022/06/11 01:02:19;;;;;;;10.50;7.72;;;;;;;16.41;62.98;99059.22;4955108;28;20043;-69
2022/06/11 01:04:53;;;;;;;10.73;8.02;;;;;;;16.46;62.54;99056.50;4972591;28;20038;-69
2022/06/11 01:07:51;;;;;;;12.65;10.40;;;;;;;16.51;62.83;99064.47;4972036;28;20070;-69
2022/06/11 01:10:17;;;;;;;10.60;8.20;;;;;;;16.55;62.40;99071.63;4954956;28;20399;-68
2022/06/11 01:12:47;;;;;;;13.82;9.05;;;;;;;16.61;62.69;99069.69;4971768;28;20047;-69
2022/06/11 01:15:20;;;;;;;13.50;8.43;;;;;;;16.71;62.28;99074.16;4954636;28;20066;-69
2022/06/11 01:18:04;;;;;;;17.50;10.13;;;;;;;16.83;62.07;99079.13;4972551;28;20054;-69
2022/06/11 01:20:39;;;;;;;9.75;7.13;;;;;;;16.98;60.80;99077.06;4954839;28;20042;-69
2022/06/11 01:23:46;;;;;;;14.10;9.77;;;;;;;17.20;60.97;99081.84;4972538;28;20054;-69
2022/06/11 01:26:56;;;;;;;12.45;8.80;;;;;;;17.43;59.83;99080.22;4947172;28;20108;-69
2022/06/11 01:29:46;;;;;;;13.80;8.00;;;;;;;17.60;59.27;99092.31;4972115;28;20058;-70
2022/06/11 01:32:18;;;;;;;14.77;12.10;;;;;;;17.91;59.02;99081.91;4935843;29;20051;-69
2022/06/11 01:35:02;;;;;;;14.75;11.77;;;;;;;18.26;57.65;99093.16;4942009;28;20074;-69
2022/06/11 01:37:40;;;;;;;11.80;9.48;;;;;;;18.80;55.79;99091.66;4938958;28;20100;-69
2022/06/11 01:40:10;;;;;;;17.15;9.52;;;;;;;19.18;54.62;99089.53;4971787;28;20041;-68
2022/06/11 01:43:00;;;;;;;17.13;11.20;;;;;;;19.51;53.98;99102.78;4975927;28;20504;-69
2022/06/11 01:45:32;;;;;;;12.55;9.35;;;;;;;19.63;52.84;99096.88;4958760;28;20043;-69
2022/06/11 01:47:59;;;;;;;16.20;10.15;;;;;;;19.84;53.04;99100.72;4975855;28;20524;-70
2022/06/11 01:50:27;;;;;;;14.25;10.07;;;;;;;19.99;52.17;99091.47;4957974;28;20045;-69
2022/06/11 01:53:05;;;;;;;14.00;8.65;;;;;;;20.19;51.33;99087.50;4976045;28;20038;-69
2022/06/11 01:55:43;;;;;;;9.98;8.38;;;;;;;20.48;50.59;99088.91;4975725;28;20057;-69
2022/06/11 01:58:36;;;;;;;9.85;7.53;;;;;;;20.78;49.37;99090.78;4974978;28;20043;-69
2022/06/11 02:01:17;;;;;;;10.52;8.27;;;;;;;20.96;48.94;99083.53;4958438;28;20046;-68
2022/06/11 02:04:14;;;;;;;11.32;7.50;;;;;;;21.10;47.95;99078.03;4958359;28;20524;-69
2022/06/11 02:06:46;;;;;;;6.47;5.88;;;;;;;21.50;46.66;99077.94;4948297;28;20062;-69
2022/06/11 02:09:36;;;;;;;7.38;6.10;;;;;;;21.68;46.29;99071.44;4975357;28;20039;-68
2022/06/11 02:12:20;;;;;;;8.40;7.30;;;;;;;22.04;45.97;99066.78;4975829;28;20467;-68
2022/06/11 02:15:25;;;;;;;8.40;6.57;;;;;;;22.05;44.76;99060.25;4974935;28;20539;-69
2022/06/11 02:17:56;;;;;;;9.02;6.15;;;;;;;22.41;44.31;99062.56;4961687;28;20101;-68
2022/06/11 02:20:26;;;;;;;10.45;6.93;;;;;;;22.58;43.96;99059.00;4957978;28;20122;-69
2022/06/11 02:22:54;;;;;;;8.85;6.88;;;;;;;22.96;43.23;99061.69;4941950;28;20098;-69
2022/06/11 02:25:20;;;;;;;8.27;6.25;;;;;;;23.34;42.98;99053.47;4975078;28;20045;-69
2022/06/11 02:27:48;;;;;;;7.80;6.90;;;;;;;23.74;41.35;99053.00;4974745;28;20432;-69
2022/06/11 02:30:18;;;;;;;7.32;6.55;;;;;;;23.61;41.50;99054.03;4957602;28;20043;-68
2022/06/11 02:32:43;;;;;;;9.35;6.95;;;;;;;23.77;41.39;99054.25;4975074;28;20139;-68
2022/06/11 02:35:11;;;;;;;9.40;7.07;;;;;;;23.66;41.47;99051.13;4941725;28;20133;-68
2022/06/11 02:37:43;;;;;;;8.30;6.82;;;;;;;23.78;41.27;99045.00;4975040;28;20050;-68
2022/06/11 02:40:16;;;;;;;8.18;6.50;;;;;;;23.60;41.59;99057.09;4957393;28;20067;-68
2022/06/11 02:42:43;;;;;;;9.82;7.15;;;;;;;23.38;42.13;99059.00;4974880;28;20492;-67
2022/06/11 02:45:13;;;;;;;8.55;6.88;;;;;;;22.89;43.19;99058.69;4974815;28;20074;-68
2022/06/11 02:47:41;;;;;;;10.38;6.97;;;;;;;22.84;43.08;99053.47;4974874;28;20503;-68
2022/06/11 02:50:08;;;;;;;7.72;6.30;;;;;;;23.49;41.91;99064.81;4956945;28;20572;-68
2022/06/11 02:52:34;;;;;;;7.95;6.38;;;;;;;23.85;40.52;99055.28;4974219;28;20046;-68
2022/06/11 02:54:59;;;;;;;7.43;6.57;;;;;;;24.42;39.86;99062.63;4974439;28;20046;-68
2022/06/11 02:57:29;;;;;;;8.82;7.38;;;;;;;24.55;39.53;99061.53;4974433;28;20059;-69
2022/06/11 02:59:56;;;;;;;8.98;6.90;;;;;;;24.46;39.84;99060.84;4957471;28;20046;-68
2022/06/11 03:02:24;;;;;;;9.10;6.95;;;;;;;24.69;39.49;99061.22;4974626;28;20046;-68
2022/06/11 03:04:50;;;;;;;9.98;6.85;;;;;;;24.97;38.64;99064.00;4973875;28;20525;-68
2022/06/11 03:07:16;;;;;;;8.15;7.10;;;;;;;25.35;38.33;99062.81;4974480;28;20082;-68
2022/06/11 03:09:43;;;;;;;10.68;7.10;;;;;;;25.31;37.65;99067.38;4974401;28;20051;-69
2022/06/11 03:12:11;;;;;;;11.23;7.80;;;;;;;25.55;37.58;99064.56;4974682;28;20047;-68
2022/06/11 03:14:37;;;;;;;9.00;7.30;;;;;;;25.64;37.71;99066.34;4973570;28;20551;-68
2022/06/11 03:17:04;;;;;;;8.55;6.78;;;;;;;25.98;36.92;99063.06;4957207;28;20098;-68
2022/06/11 03:19:30;;;;;;;9.48;6.78;;;;;;;26.41;36.06;99061.41;4956993;28;20043;-68
2022/06/11 03:21:56;;;;;;;11.48;7.18;;;;;;;26.78;35.67;99065.81;4957307;28;20050;-68
2022/06/11 03:24:23;;;;;;;8.15;6.95;;;;;;;26.82;35.00;99064.72;4956111;28;20066;-69
2022/06/11 03:26:50;;;;;;;9.00;6.63;;;;;;;26.27;36.27;99066.50;4940848;28;20062;-68
2022/06/11 03:29:17;;;;;;;7.63;6.90;;;;;;;25.72;37.47;99066.19;4956296;28;20617;-69
2022/06/11 03:31:44;;;;;;;8.02;6.80;;;;;;;25.22;38.47;99066.72;4974037;28;20085;-69
2022/06/11 03:34:10;;;;;;;10.63;7.13;;;;;;;24.96;39.52;99067.06;4973268;28;20038;-69
2022/06/11 03:36:36;;;;;;;9.27;7.10;;;;;;;25.06;39.46;99055.72;4956541;28;20042;-70
2022/06/11 03:39:02;;;;;;;9.00;7.28;;;;;;;25.46;38.70;99057.72;4973569;28;20066;-68
2022/06/11 03:41:28;;;;;;;10.88;7.07;;;;;;;25.69;38.67;99068.81;4974129;28;20039;-68
2022/06/11 03:43:54;;;;;;;12.57;7.05;;;;;;;25.43;39.70;99069.25;4973561;28;20321;-69
2022/06/11 03:46:20;;;;;;;8.40;6.68;;;;;;;25.64;38.71;99074.50;4974014;28;20424;-69
2022/06/11 03:48:47;;;;;;;10.38;6.53;;;;;;;25.96;37.80;99068.03;4956702;28;20046;-69
2022/06/11 03:51:13;;;;;;;8.98;6.53;;;;;;;26.63;37.18;99079.06;4956047;28;20042;-69
2022/06/11 03:53:40;;;;;;;12.30;7.25;;;;;;;26.98;36.81;99072.88;4956223;28;20050;-68
2022/06/11 03:56:08;;;;;;;10.75;7.57;;;;;;;27.48;36.57;99065.81;4973743;28;20061;-68
2022/06/11 03:58:35;;;;;;;9.27;7.05;;;;;;;27.33;37.05;99067.44;4973333;28;20066;-69
2022/06/11 04:01:16;;;;;;;13.88;7.75;;;;;;;26.73;38.19;99085.88;4955649;28;20568;-67
2022/06/11 04:03:55;;;;;;;8.63;6.80;;;;;;;26.07;39.69;99081.91;4973173;28;20046;-68
2022/06/11 04:06:30;;;;;;;10.05;7.00;;;;;;;25.72;40.51;99081.69;4973405;28;20049;-68
2022/06/11 04:08:56;;;;;;;12.02;6.97;;;;;;;25.34;40.82;99072.88;4973564;28;20460;-69
2022/06/11 04:11:22;;;;;;;10.57;8.30;;;;;;;25.13;41.85;99069.53;4969997;28;20047;-69
2022/06/11 04:13:49;;;;;;;9.30;7.20;;;;;;;24.98;41.93;99071.00;4955800;28;20421;-68
2022/06/11 04:16:21;;;;;;;11.50;7.65;;;;;;;24.83;43.29;99069.78;4973172;28;20153;-67
2022/06/11 04:18:48;;;;;;;9.85;7.50;;;;;;;24.69;43.12;99063.91;4973355;28;20097;-68
2022/06/11 04:21:14;;;;;;;11.45;7.25;;;;;;;24.61;42.55;99062.88;4955520;28;20050;-69
2022/06/11 04:23:42;;;;;;;8.35;7.13;;;;;;;24.56;42.77;99070.44;4955651;28;20067;-68
2022/06/11 04:26:18;;;;;;;12.30;8.07;;;;;;;24.67;42.16;99077.78;4972685;28;20047;-69
2022/06/11 04:28:44;;;;;;;8.77;7.10;;;;;;;24.73;42.44;99083.00;4955372;28;20053;-70
2022/06/11 04:31:10;;;;;;;12.68;8.07;;;;;;;24.67;44.02;99088.63;4973174;28;20046;-68
2022/06/11 04:33:36;;;;;;;12.55;7.57;;;;;;;24.55;44.39;99080.50;4955405;28;20504;-68
2022/06/11 04:36:03;;;;;;;11.55;8.30;;;;;;;24.42;45.32;99084.31;4972976;28;20046;-68
2022/06/11 04:38:29;;;;;;;18.35;8.50;;;;;;;24.63;45.83;99081.53;4939752;28;20051;-69
2022/06/11 04:40:55;;;;;;;11.85;8.00;;;;;;;24.67;45.99;99083.22;4955007;28;20061;-69
2022/06/11 04:43:21;;;;;;;10.60;8.20;;;;;;;24.73;45.67;99074.88;4972953;28;20471;-71
2022/06/11 04:45:47;;;;;;;11.93;8.48;;;;;;;25.14;44.62;99063.00;4972524;28;20142;-70
2022/06/11 04:48:13;;;;;;;11.00;7.25;;;;;;;25.38;45.03;99062.94;4972560;28;20455;-70
2022/06/11 04:50:39;;;;;;;11.93;8.10;;;;;;;25.94;43.63;99074.94;4955272;28;20061;-69
2022/06/11 04:53:05;;;;;;;11.95;8.13;;;;;;;25.80;43.50;99069.91;4972165;28;20050;-70
2022/06/11 04:55:32;;;;;;;12.27;7.80;;;;;;;25.92;43.24;99077.25;4972594;28;20035;-67
2022/06/11 04:57:58;;;;;;;16.60;12.73;;;;;;;26.38;41.81;99070.25;4972567;28;20436;-71
2022/06/11 05:00:27;;;;;;;13.63;8.23;;;;;;;26.07;42.55;99081.13;4972065;28;20030;-71
2022/06/11 05:02:53;;;;;;;12.17;7.17;;;;;;;26.49;41.74;99089.56;4972796;28;20046;-70
2022/06/11 05:05:19;;;;;;;13.88;7.85;;;;;;;26.43;40.79;99094.47;4955074;28;20293;-70
2022/06/11 05:07:46;;;;;;;13.52;7.80;;;;;;;26.33;41.02;99095.00;4972475;28;20058;-71
2022/06/11 05:10:14;;;;;;;12.57;8.20;;;;;;;26.56;40.96;99105.28;4972564;28;20057;-70
2022/06/11 05:12:39;;;;;;;15.70;7.95;;;;;;;26.76;40.99;99098.78;4972455;28;20058;-69
2022/06/11 05:15:06;;;;;;;9.10;7.82;;;;;;;26.80;40.93;99101.59;4971680;28;20648;-69
2022/06/11 05:17:32;;;;;;;11.93;7.82;;;;;;;26.98;40.57;99097.34;4954845;28;20100;-71
2022/06/11 05:19:58;;;;;;;13.30;7.57;;;;;;;26.96;40.13;99097.69;4971472;28;20559;-71
2022/06/11 05:22:23;;;;;;;16.42;9.38;;;;;;;26.75;40.95;99090.97;4955256;28;20070;-71
2022/06/11 05:24:49;;;;;;;13.25;7.55;;;;;;;26.79;39.89;99092.63;4972260;28;20094;-70
2022/06/11 05:27:19;;;;;;;12.13;7.50;;;;;;;26.90;40.29;99093.66;4972136;28;20066;-70
2022/06/11 05:30:10;;;;;;;11.98;7.07;;;;;;;26.80;38.77;99094.22;4971952;28;20106;-69
2022/06/11 05:32:37;;;;;;;12.80;7.43;;;;;;;26.93;37.85;99094.91;4972302;28;20126;-69
2022/06/11 05:35:06;;;;;;;11.70;7.28;;;;;;;26.87;37.88;99099.03;4971963;28;20070;-71
2022/06/11 05:37:32;;;;;;;12.20;7.90;;;;;;;26.69;39.22;99087.75;4938812;28;20133;-70
2022/06/11 05:39:57;;;;;;;12.43;7.15;;;;;;;26.50;39.88;99089.25;4971375;28;20121;-70
2022/06/11 05:42:25;;;;;;;7.25;6.53;;;;;;;26.32;41.30;99093.41;4971967;28;20047;-69
2022/06/11 05:44:51;;;;;;;12.05;6.35;;;;;;;26.39;41.46;99100.97;4972143;28;20101;-70
2022/06/11 05:47:19;;;;;;;13.85;7.32;;;;;;;26.48;41.71;99107.78;4971758;28;20047;-70
2022/06/11 05:49:48;;;;;;;10.82;6.35;;;;;;;26.52;41.78;99109.84;4971933;28;20116;-70
2022/06/11 05:52:17;;;;;;;11.07;6.53;;;;;;;26.54;41.35;99110.28;4954784;28;20039;-70
2022/06/11 05:54:45;;;;;;;10.33;6.70;;;;;;;26.59;41.08;99107.28;4971592;28;20042;-70
2022/06/11 05:57:14;;;;;;;7.45;6.10;;;;;;;26.54;40.10;99118.44;4971263;28;20306;-70
2022/06/11 05:59:43;;;;;;;6.85;6.15;;;;;;;26.54;40.41;99116.50;4953637;28;20039;-70
2022/06/11 06:02:11;;;;;;;8.95;5.88;;;;;;;26.71;39.40;99120.81;4970849;28;20516;-70
2022/06/11 06:04:38;;;;;;;9.90;6.13;;;;;;;26.68;39.80;99114.16;4971536;28;20043;-71
2022/06/11 06:07:06;;;;;;;10.20;5.97;;;;;;;26.52;39.28;99118.00;4971752;28;20117;-69
2022/06/11 06:09:32;;;;;;;7.55;5.78;;;;;;;26.40;39.94;99125.06;4971427;28;20042;-71
2022/06/11 06:11:59;;;;;;;10.05;5.45;;;;;;;26.55;38.84;99118.06;4954093;28;20051;-69
2022/06/11 06:14:24;;;;;;;7.80;4.78;;;;;;;26.56;37.55;99116.97;4970907;28;20043;-70
2022/06/11 06:16:50;;;;;;;7.32;5.20;;;;;;;26.21;39.68;99120.31;4971488;28;20063;-71
2022/06/11 06:19:16;;;;;;;6.93;4.88;;;;;;;26.01;39.27;99124.81;4971240;28;20117;-70
2022/06/11 06:21:42;;;;;;;6.60;4.40;;;;;;;25.80;39.34;99129.63;4954448;28;20058;-69
2022/06/11 06:24:08;;;;;;;8.93;5.10;;;;;;;25.74;39.50;99131.81;4971057;28;20491;-67
2022/06/11 06:26:34;;;;;;;5.93;5.28;;;;;;;25.40;41.94;99126.91;4938250;28;20416;-69
2022/06/11 06:29:00;;;;;;;9.20;7.47;;;;;;;25.37;42.37;99139.25;4956266;28;20057;-70
2022/06/11 06:31:26;;;;;;;8.23;6.85;;;;;;;25.46;41.86;99129.03;4975000;28;20051;-68
2022/06/11 06:33:56;;;;;;;11.05;6.88;;;;;;;25.63;41.42;99110.91;4958013;28;20496;-67
2022/06/11 06:36:22;;;;;;;11.40;6.75;;;;;;;26.03;40.21;99127.16;4941154;28;20038;-68
2022/06/11 06:38:50;;;;;;;12.10;7.20;;;;;;;26.14;40.25;99130.19;4975185;28;20050;-67
2022/06/11 06:41:16;;;;;;;7.90;6.45;;;;;;;26.02;40.68;99126.38;4957741;28;20074;-68
2022/06/11 06:43:42;;;;;;;7.45;6.22;;;;;;;26.11;40.49;99128.94;4974874;28;20074;-68
2022/06/11 06:46:08;;;;;;;8.30;5.47;;;;;;;26.19;38.40;99133.44;4974316;28;20035;-68
2022/06/11 06:48:33;;;;;;;8.75;4.75;;;;;;;26.17;37.80;99141.13;4975017;28;20393;-69
2022/06/11 06:50:59;;;;;;;6.00;4.57;;;;;;;26.18;37.76;99133.81;4975122;28;20065;-67
2022/06/11 06:53:26;;;;;;;5.25;4.35;;;;;;;26.15;37.43;99145.34;4941459;28;20043;-67
2022/06/11 06:55:55;;;;;;;9.27;5.55;;;;;;;25.89;38.71;99132.25;4975636;28;20094;-67
2022/06/11 06:58:27;;;;;;;9.57;5.57;;;;;;;25.72;39.46;99147.63;4897035;28;20043;-69
2022/06/11 07:00:53;;;;;;;5.65;5.10;;;;;;;25.61;39.95;99139.19;4974313;28;20035;-68
2022/06/11 07:03:19;;;;;;;6.82;5.85;;;;;;;25.52;40.42;99143.16;4941231;28;20043;-68
2022/06/11 07:05:45;;;;;;;9.10;5.78;;;;;;;25.47;40.49;99148.81;4973903;28;20047;-68
2022/06/11 07:08:12;;;;;;;7.65;5.57;;;;;;;25.44;40.32;99146.78;4974593;28;20042;-69
2022/06/11 07:10:38;;;;;;;7.97;6.20;;;;;;;25.42;41.36;99151.78;4956698;28;20039;-70
2022/06/11 07:13:04;;;;;;;11.85;6.68;;;;;;;25.58;40.62;99144.50;4974245;28;20047;-68
2022/06/11 07:15:30;;;;;;;9.65;6.60;;;;;;;26.00;39.93;99141.44;4955847;28;20505;-67
2022/06/11 07:18:03;;;;;;;11.48;5.85;;;;;;;26.25;39.59;99148.34;4956906;28;20082;-68
2022/06/11 07:20:30;;;;;;;8.13;5.90;;;;;;;26.32;38.98;99147.75;4973854;28;20069;-68
2022/06/11 07:23:00;;;;;;;8.02;5.70;;;;;;;26.36;39.05;99145.94;4956800;28;20054;-71
2022/06/11 07:25:28;;;;;;;6.93;5.28;;;;;;;26.25;39.58;99145.63;4955901;28;20042;-70
2022/06/11 07:27:59;;;;;;;12.75;5.72;;;;;;;26.16;39.20;99149.66;4973569;28;20042;-71
2022/06/11 07:30:26;;;;;;;11.60;5.97;;;;;;;26.07;39.67;99138.94;4954944;28;20401;-68
2022/06/11 07:32:56;;;;;;;7.47;5.93;;;;;;;26.11;39.81;99142.53;4955041;28;20046;-68
2022/06/11 07:35:22;;;;;;;;;;;;;;;26.29;39.03;99141.06;4955829;28;20046;-66
2022/06/11 07:37:48;;;;;;;10.48;6.07;;;;;;;26.10;38.93;99140.97;4973319;28;19926;-68
2022/06/11 07:40:14;;;;;;;7.35;6.28;;;;;;;25.79;39.76;99149.75;4973469;28;20049;-68
2022/06/11 07:42:40;;;;;;;12.63;5.72;;;;;;;25.79;39.85;99155.19;4973413;28;20421;-66
2022/06/11 07:45:06;;;;;;;9.40;5.60;;;;;;;25.58;39.94;99153.44;4973372;28;20165;-67
2022/06/11 07:50:17;;;;;;;8.68;5.28;;;;;;;25.51;41.27;99152.44;4973499;28;20057;-68
2022/06/11 07:52:43;;;;;;;6.95;5.65;;;;;;;25.51;40.31;99155.94;4972634;28;20501;-68
2022/06/11 07:55:11;;;;;;;8.65;5.95;;;;;;;25.35;40.84;99166.72;4955803;28;20039;-67
2022/06/11 07:57:38;;;;;;;7.10;5.72;;;;;;;25.25;41.20;99166.38;4955920;28;20058;-68
2022/06/11 08:00:07;;;;;;;8.73;5.88;;;;;;;25.14;42.10;99174.19;4955443;28;20066;-69
2022/06/11 08:02:39;;;;;;;7.80;6.00;;;;;;;25.07;42.51;99166.59;4972829;28;20050;-70
2022/06/11 08:05:06;;;;;;;8.05;5.80;;;;;;;25.08;41.50;99162.75;4973352;28;20134;-68
2022/06/11 08:07:31;;;;;;;7.88;5.60;;;;;;;25.19;41.42;99176.69;4973246;28;20046;-67
2022/06/11 08:09:58;;;;;;;7.55;5.15;;;;;;;25.17;40.83;99167.28;4972426;28;20042;-68
2022/06/11 08:12:25;;;;;;;12.18;5.90;;;;;;;25.16;41.48;99171.94;4964234;28;20424;-69
2022/06/11 08:14:56;;;;;;;11.25;5.50;;;;;;;24.97;41.94;99169.75;4973353;28;20062;-67
2022/06/11 08:17:32;;;;;;;7.97;5.47;;;;;;;24.87;42.16;99172.91;4973381;28;20051;-67
2022/06/11 08:19:59;;;;;;;7.18;5.60;;;;;;;24.71;42.34;99172.78;4973447;28;20125;-67
2022/06/11 08:22:25;;;;;;;11.18;5.75;;;;;;;24.52;42.60;99167.88;4973278;28;20062;-68
2022/06/11 08:24:51;;;;;;;7.20;5.70;;;;;;;24.33;43.99;99170.31;4973201;28;20040;-68
2022/06/11 08:27:17;;;;;;;9.25;5.88;;;;;;;24.32;45.19;99171.41;4955534;28;20050;-68
2022/06/11 08:29:43;;;;;;;8.50;5.70;;;;;;;24.24;44.74;99171.16;4973230;28;20038;-67
2022/06/11 08:32:10;;;;;;;8.88;5.18;;;;;;;24.18;43.88;99171.72;4955564;28;20050;-68
2022/06/11 08:34:41;;;;;;;8.57;5.63;;;;;;;24.02;44.70;99168.81;4973074;28;20046;-68
2022/06/11 08:37:08;;;;;;;6.70;5.35;;;;;;;23.92;45.69;99163.81;4972796;28;20058;-69
2022/06/11 08:39:34;;;;;;;8.35;5.18;;;;;;;23.84;46.02;99160.06;4973113;28;20046;-69
2022/06/11 08:42:01;;;;;;;13.43;7.85;;;;;;;23.80;46.86;99167.25;4972554;28;20039;-68
2022/06/11 08:44:28;;;;;;;42.63;18.20;;;;;;;23.80;46.12;99170.75;4955740;28;20050;-68
2022/06/11 08:46:57;;;;;;;25.15;10.65;;;;;;;23.71;48.02;99158.44;4936211;29;20058;-67
2022/06/11 08:49:45;;;;;;;27.45;13.45;;;;;;;23.76;48.00;99160.91;4953254;28;20055;-68
2022/06/11 08:52:17;;;;;;;8.35;5.20;;;;;;;23.61;47.14;99159.56;4970375;28;20054;-68
2022/06/11 08:54:45;;;;;;;8.85;6.07;;;;;;;23.55;49.18;99160.88;4972915;28;20530;-68
2022/06/11 08:57:44;;;;;;;6.95;5.10;;;;;;;23.40;48.50;99164.16;4972750;28;20058;-68
2022/06/11 09:00:10;;;;;;;13.77;7.90;;;;;;;23.39;48.39;99155.25;4972587;28;20038;-69
2022/06/11 09:02:45;;;;;;;11.63;6.88;;;;;;;23.49;48.62;99157.56;4972653;28;20058;-68
2022/06/11 09:05:25;;;;;;;8.40;4.93;;;;;;;23.62;47.21;99160.34;4972600;28;20070;-69
2022/06/11 09:08:01;;;;;;;6.13;5.07;;;;;;;23.70;48.78;99154.13;4972591;28;20046;-67
2022/06/11 09:10:57;;;;;;;11.15;6.95;;;;;;;23.65;48.90;99162.38;4954974;28;20419;-69
2022/06/11 09:13:32;;;;;;;8.15;5.43;;;;;;;23.63;48.69;99156.53;4972318;28;20512;-68
2022/06/11 09:16:09;;;;;;;10.68;5.93;;;;;;;23.75;49.06;99159.34;4935355;29;20054;-68
2022/06/11 09:18:49;;;;;;;9.25;5.18;;;;;;;23.90;48.73;99157.94;4953190;28;20128;-67
2022/06/11 09:21:18;;;;;;;6.25;4.50;;;;;;;23.82;47.94;99161.50;4953258;29;20039;-68
2022/06/11 09:24:27;;;;;;;8.35;4.88;;;;;;;23.89;46.96;99162.56;4952859;28;20048;-68
2022/06/11 09:27:00;;;;;;;8.25;4.90;;;;;;;23.85;49.19;99164.34;4950098;29;20088;-68
2022/06/11 09:29:51;;;;;;;8.48;4.50;;;;;;;23.77;46.92;99171.41;4935667;29;20130;-68
2022/06/11 09:32:20;;;;;;;5.68;4.72;;;;;;;23.76;47.63;99174.44;4953133;29;20062;-68
2022/06/11 09:35:09;;;;;;;7.60;5.22;;;;;;;23.71;48.45;99169.25;4953090;28;20511;-68
2022/06/11 09:37:51;;;;;;;6.75;4.85;;;;;;;23.44;49.95;99167.78;4935934;28;20051;-68
2022/06/11 09:40:42;;;;;;;7.40;4.93;;;;;;;23.70;49.92;99168.44;4951692;29;20532;-68
2022/06/11 09:43:29;;;;;;;4.18;3.78;;;;;;;23.90;47.04;99174.19;4951843;28;20055;-69
2022/06/11 09:46:19;;;;;;;4.68;3.38;;;;;;;24.01;45.07;99172.66;4951364;29;20048;-69
2022/06/11 09:48:54;;;;;;;;;;;;;;;24.12;44.96;99173.84;4952263;28;20171;-68
2022/06/11 09:51:22;;;;;;;4.35;3.40;;;;;;;24.21;45.98;99174.53;4952725;29;19922;-67
2022/06/11 09:54:29;;;;;;;4.93;4.10;;;;;;;24.17;46.17;99170.91;4952754;28;20632;-68
2022/06/11 09:57:05;;;;;;;5.07;3.63;;;;;;;24.20;45.23;99172.94;4935711;29;20281;-69
2022/06/11 09:59:41;;;;;;;4.55;3.30;;;;;;;24.17;45.91;99172.81;4952829;28;20054;-68
2022/06/11 10:02:07;;;;;;;5.88;4.22;;;;;;;24.18;44.64;99177.91;4952755;28;20082;-69
2022/06/11 10:04:42;;;;;;;5.47;4.13;;;;;;;24.17;43.69;99168.19;4954976;28;20469;-67
2022/06/11 10:07:19;;;;;;;8.20;4.30;;;;;;;24.17;43.91;99164.69;4955121;28;20102;-68
2022/06/11 10:09:52;;;;;;;8.73;4.78;;;;;;;24.16;43.60;99163.13;4956549;28;20067;-67
2022/06/11 10:12:29;;;;;;;5.68;4.68;;;;;;;24.08;43.20;99164.00;4954743;29;20078;-67
2022/06/11 10:15:01;;;;;;;9.25;6.28;;;;;;;24.00;43.46;99158.34;4954886;29;20106;-67
2022/06/11 10:17:35;;;;;;;7.47;4.75;;;;;;;23.92;43.63;99147.59;4956202;28;20044;-68
2022/06/11 10:20:04;;;;;;;8.93;5.78;;;;;;;23.87;44.38;99153.19;4954792;29;20050;-68
2022/06/11 10:22:35;;;;;;;5.45;4.90;;;;;;;23.79;44.40;99152.13;4956133;28;20122;-68
2022/06/11 10:25:04;;;;;;;8.65;6.00;;;;;;;23.71;45.12;99156.50;4955884;29;20039;-69
2022/06/11 10:27:33;;;;;;;7.17;5.00;;;;;;;23.67;44.70;99149.34;4955855;28;20520;-67
2022/06/11 10:30:07;;;;;;;6.07;4.65;;;;;;;23.73;43.63;99153.44;4954516;29;20219;-68
2022/06/11 10:32:40;;;;;;;8.30;4.90;;;;;;;23.69;43.60;99147.88;4936890;29;20043;-68
2022/06/11 10:35:12;;;;;;;6.85;5.13;;;;;;;23.68;44.39;99148.19;4937665;29;20134;-68
2022/06/11 10:37:43;;;;;;;14.40;6.53;;;;;;;23.74;45.50;99144.22;4955824;28;20051;-69
2022/06/11 10:40:19;;;;;;;8.82;6.43;;;;;;;23.80;44.29;99138.28;4954436;29;20559;-70
2022/06/11 10:43:03;;;;;;;9.32;7.30;;;;;;;23.92;44.89;99142.16;4955904;28;20059;-69
2022/06/11 10:45:29;;;;;;;9.50;5.63;;;;;;;24.00;44.19;99138.56;4938481;29;20535;-68
2022/06/11 10:47:58;;;;;;;9.95;6.45;;;;;;;24.03;45.34;99141.44;4955713;28;20098;-69
2022/06/11 10:50:33;;;;;;;7.40;5.22;;;;;;;24.12;45.16;99144.06;4954379;29;20031;-68
2022/06/11 10:53:09;;;;;;;6.47;5.35;;;;;;;24.09;44.62;99133.88;4955381;28;20106;-68
2022/06/11 10:55:47;;;;;;;7.38;5.13;;;;;;;24.07;44.34;99129.94;4938382;29;20053;-68
2022/06/11 10:58:32;;;;;;;8.23;4.72;;;;;;;24.23;43.78;99150.63;4954563;28;20055;-68
2022/06/11 11:01:02;;;;;;;7.63;5.07;;;;;;;24.40;43.53;99155.06;4955370;28;20094;-67
2022/06/11 11:03:46;;;;;;;;;;;;;;;24.50;42.26;99153.88;4955928;28;20159;-67
2022/06/11 11:06:32;;;;;;;6.07;4.38;;;;;;;24.48;42.21;99148.81;4955191;28;20451;-67
2022/06/11 11:09:04;;;;;;;9.27;4.95;;;;;;;24.46;43.12;99137.50;4955192;28;20135;-68
2022/06/11 11:11:42;;;;;;;5.22;4.05;;;;;;;24.63;41.26;99141.94;4954097;29;20402;-68
2022/06/11 11:14:15;;;;;;;9.70;4.70;;;;;;;24.89;41.41;99140.84;4952749;28;20436;-67
2022/06/11 11:16:47;;;;;;;8.13;4.75;;;;;;;24.98;41.72;99146.94;4952332;29;20524;-67
2022/06/11 11:19:22;;;;;;;7.35;4.70;;;;;;;25.08;40.97;99151.88;4955089;28;20449;-67
2022/06/11 11:21:57;;;;;;;11.27;5.13;;;;;;;25.12;41.30;99149.31;4953089;29;20110;-67
2022/06/11 11:24:48;;;;;;;5.90;4.70;;;;;;;25.06;41.63;99156.06;4953379;29;20074;-67
2022/06/11 11:27:21;;;;;;;5.90;4.65;;;;;;;24.87;41.89;99151.22;4953351;29;20043;-68
2022/06/11 11:30:28;;;;;;;9.77;4.70;;;;;;;24.76;42.85;99153.56;4950177;28;20134;-69
2022/06/11 11:32:53;;;;;;;9.98;5.03;;;;;;;24.54;43.73;99156.72;4945196;28;20051;-69
2022/06/11 11:35:38;;;;;;;6.68;5.00;;;;;;;24.44;43.91;99144.38;4953432;29;20074;-69
2022/06/11 11:38:14;;;;;;;8.55;5.70;;;;;;;24.49;43.63;99149.59;4955037;28;20147;-68
2022/06/11 11:40:53;;;;;;;7.00;5.05;;;;;;;24.50;44.95;99147.66;4950332;28;20054;-69
2022/06/11 11:43:21;;;;;;;6.00;5.10;;;;;;;24.39;43.49;99158.13;4935193;29;20054;-71
2022/06/11 11:45:59;;;;;;;9.65;6.93;;;;;;;24.30;41.91;99149.31;4950604;29;20086;-71
2022/06/11 11:48:30;;;;;;;10.98;5.40;;;;;;;24.23;43.56;99150.63;4918210;29;20044;-70
2022/06/11 11:51:03;;;;;;;7.10;4.75;;;;;;;24.03;44.24;99137.91;4942655;29;20129;-71
2022/06/11 11:53:35;;;;;;;6.60;4.97;;;;;;;23.98;45.10;99143.53;4952940;28;20053;-71
2022/06/11 11:56:06;;;;;;;7.32;4.57;;;;;;;24.00;45.08;99138.56;4951637;29;20421;-70